Time;durP1;ratioP1;P1;durP2;ratioP2;P2;SDS_P1;SDS_P2;PMS_P1;PMS_P2;Temp;Humidity;BMP_temperature;BMP_pressure;BME280_temperature;BME280_humidity;BME280_pressure;Samples;Min_cycle;Max_cycle;Signal;HPM_P1;HPM_P2
2022/12/25 00:00:34;;;;;;;;;;;5.20;99.90;;;;;;5078572;28;20363;-40
2022/12/25 00:03:00;;;;;;;;;;;5.20;99.90;;;;;;5090021;28;19999;-40
2022/12/25 00:05:25;;;;;;;;;;;5.10;99.90;;;;;;5094848;28;19961;-40
2022/12/25 00:07:51;;;;;;;;;;;5.20;99.90;;;;;;5091832;28;19916;-39
2022/12/25 00:10:16;;;;;;;;;;;5.20;99.90;;;;;;5095158;28;19969;-38
2022/12/25 00:12:42;;;;;;;;;;;5.30;99.90;;;;;;5094316;28;19966;-40
2022/12/25 00:15:07;;;;;;;;;;;5.40;99.90;;;;;;5093842;28;19917;-38
2022/12/25 00:17:33;;;;;;;;;;;5.50;99.90;;;;;;5094698;28;19962;-39
2022/12/25 00:19:58;;;;;;;;;;;5.60;99.90;;;;;;5090385;28;19914;-39
2022/12/25 00:22:24;;;;;;;;;;;5.70;99.90;;;;;;5093468;28;20006;-40
2022/12/25 00:24:49;;;;;;;;;;;5.70;99.90;;;;;;5092597;28;19935;-40
2022/12/25 00:27:15;;;;;;;;;;;5.80;99.90;;;;;;5084218;28;19925;-39
2022/12/25 00:29:40;;;;;;;;;;;5.70;99.90;;;;;;5073753;28;19912;-39
2022/12/25 00:32:06;;;;;;;;;;;5.70;99.90;;;;;;5089711;28;19946;-41
2022/12/25 00:34:31;;;;;;;;;;;5.70;99.90;;;;;;5113146;28;20381;-40
2022/12/25 00:36:57;;;;;;;;;;;5.70;99.90;;;;;;5105853;28;19963;-39
2022/12/25 00:39:23;;;;;;;;;;;5.70;99.90;;;;;;5114596;28;20362;-40
2022/12/25 00:44:32;;;;;;;;;;;5.70;99.90;;;;;;5113919;28;19918;-39
2022/12/25 00:46:57;;;;;;;;;;;5.70;99.90;;;;;;5114552;28;20010;-39
2022/12/25 00:49:23;;;;;;;;;;;5.80;99.90;;;;;;5114348;28;19934;-39
2022/12/25 00:51:49;;;;;;;;;;;5.80;99.90;;;;;;5096208;28;19908;-41
2022/12/25 00:54:14;;;;;;;;;;;5.70;99.90;;;;;;5094265;28;20367;-40
2022/12/25 00:56:40;;;;;;;;;;;5.70;99.90;;;;;;5094110;28;20361;-40
2022/12/25 00:59:05;;;;;;;;;;;5.70;99.90;;;;;;5093467;28;19988;-39
2022/12/25 01:01:31;;;;;;;;;;;5.60;99.90;;;;;;5102432;28;19926;-38
2022/12/25 01:03:57;;;;;;;;;;;5.60;99.90;;;;;;5113102;28;19916;-38
2022/12/25 01:06:22;;;;;;;;;;;5.60;99.90;;;;;;5114230;28;19947;-39
2022/12/25 01:11:32;;;;;;;;;;;5.60;99.90;;;;;;5097770;28;19919;-39
2022/12/25 01:13:57;;;;;;;;;;;5.60;99.90;;;;;;5093810;28;19912;-39
2022/12/25 01:16:23;;;;;;;;;;;5.60;99.90;;;;;;5093647;28;19995;-40
2022/12/25 01:18:48;;;;;;;;;;;5.60;99.90;;;;;;5097791;28;19908;-39
2022/12/25 01:21:15;;;;;;;;;;;5.70;99.90;;;;;;5113628;28;20002;-39
2022/12/25 01:23:40;;;;;;;;;;;5.70;99.90;;;;;;5093800;28;19912;-39
2022/12/25 01:26:07;;;;;;;;;;;5.70;99.90;;;;;;5092809;28;19920;-38
2022/12/25 01:28:32;;;;;;;;;;;5.70;99.90;;;;;;5109731;28;20313;-39
2022/12/25 01:30:58;;;;;;;;;;;5.70;99.90;;;;;;5109273;28;19920;-39
2022/12/25 01:33:23;;;;;;;;;;;5.70;99.90;;;;;;5099320;28;20274;-39
2022/12/25 01:35:49;;;;;;;;;;;5.70;99.90;;;;;;5111421;28;19916;-38
2022/12/25 01:38:14;;;;;;;;;;;5.80;99.90;;;;;;5113242;28;19912;-38
2022/12/25 01:40:40;;;;;;;;;;;5.80;99.90;;;;;;5105484;28;19969;-39
2022/12/25 01:43:17;;;;;;;;;;;5.80;99.90;;;;;;5106459;28;19916;-38
2022/12/25 01:45:43;;;;;;;;;;;5.90;99.90;;;;;;5112862;28;19919;-39
2022/12/25 01:48:13;;;;;;;;;;;5.90;99.90;;;;;;5112381;28;19936;-38
2022/12/25 01:50:40;;;;;;;;;;;6.00;99.90;;;;;;5113814;28;19943;-38
2022/12/25 01:53:06;;;;;;;;;;;6.00;99.90;;;;;;5103568;28;19965;-40
2022/12/25 01:55:32;;;;;;;;;;;6.10;99.90;;;;;;5092716;28;19908;-39
2022/12/25 01:57:58;;;;;;;;;;;6.10;99.90;;;;;;5092966;28;20298;-38
2022/12/25 02:00:23;;;;;;;;;;;6.10;99.90;;;;;;5107984;28;20167;-38
2022/12/25 02:02:49;;;;;;;;;;;6.20;99.90;;;;;;5095631;28;19916;-39
2022/12/25 02:05:22;;;;;;;;;;;6.30;99.90;;;;;;5113116;28;19915;-38
2022/12/25 02:07:48;;;;;;;;;;;6.30;99.90;;;;;;5095239;28;19981;-39
2022/12/25 02:10:14;;;;;;;;;;;6.30;99.90;;;;;;5113288;28;19907;-39
2022/12/25 02:12:40;;;;;;;;;;;6.30;99.90;;;;;;5112910;28;19918;-39
2022/12/25 02:15:07;;;;;;;;;;;6.40;99.90;;;;;;5111819;28;19948;-38
2022/12/25 02:17:42;;;;;;;;;;;6.50;99.90;;;;;;5111330;28;19912;-39
2022/12/25 02:20:26;;;;;;;;;;;6.50;99.90;;;;;;5113216;28;19978;-39
2022/12/25 02:23:16;;;;;;;;;;;6.50;99.90;;;;;;5103235;28;20392;-40
2022/12/25 02:26:00;;;;;;;;;;;6.60;99.90;;;;;;5107905;28;19963;-39
2022/12/25 02:28:55;;;;;;;;;;;6.50;99.90;;;;;;5111868;28;20015;-39
2022/12/25 02:31:29;;;;;;;;;;;6.50;99.90;;;;;;5094258;28;19931;-39
2022/12/25 02:34:04;;;;;;;;;;;6.50;99.90;;;;;;5112663;28;19916;-40
2022/12/25 02:36:32;;;;;;;;;;;6.60;99.90;;;;;;5106984;28;19912;-40
2022/12/25 02:41:43;;;;;;;;;;;6.60;99.90;;;;;;5092901;28;19997;-40
2022/12/25 03:11:53;;;;;;;;;;;7.10;99.90;;;;;;5111814;28;20000;-39
2022/12/25 03:17:02;;;;;;;;;;;7.20;99.90;;;;;;5096456;28;19919;-40
2022/12/25 03:28:01;;;;;;;;;;;7.30;99.90;;;;;;5096235;28;20172;-39
2022/12/25 03:33:21;;;;;;;;;;;7.30;99.90;;;;;;5095339;28;20341;-39
2022/12/25 03:36:02;;;;;;;;;;;7.30;99.90;;;;;;5107994;28;19966;-39
2022/12/25 04:37:00;;;;;;;;;;;7.60;99.90;;;;;;5095190;28;20000;-39
2022/12/25 04:39:26;;;;;;;;;;;7.60;99.90;;;;;;5094483;28;19951;-39
2022/12/25 04:41:51;;;;;;;;;;;7.60;99.90;;;;;;5094289;28;20417;-38
2022/12/25 04:44:17;;;;;;;;;;;7.60;99.90;;;;;;5093577;28;19918;-39
2022/12/25 04:46:42;;;;;;;;;;;7.60;99.90;;;;;;5107982;28;19927;-38
2022/12/25 04:49:08;;;;;;;;;;;7.70;99.90;;;;;;5096151;28;19920;-39
2022/12/25 04:51:35;;;;;;;;;;;7.70;99.90;;;;;;5102949;28;20347;-39
2022/12/25 04:54:00;;;;;;;;;;;7.70;99.90;;;;;;5114369;28;19912;-38
2022/12/25 04:56:26;;;;;;;;;;;7.70;99.90;;;;;;5113548;28;19908;-41
2022/12/25 04:58:51;;;;;;;;;;;7.70;99.90;;;;;;5094126;28;19951;-39
2022/12/25 05:01:16;;;;;;;;;;;7.70;99.90;;;;;;5094192;28;19908;-39
2022/12/25 05:03:42;;;;;;;;;;;7.70;99.90;;;;;;5106176;28;20065;-38
2022/12/25 05:06:07;;;;;;;;;;;7.80;99.90;;;;;;5114125;28;19923;-38
2022/12/25 05:08:33;;;;;;;;;;;7.80;99.90;;;;;;5114085;28;20381;-39
2022/12/25 05:10:59;;;;;;;;;;;7.80;99.90;;;;;;5113671;28;20397;-40
2022/12/25 05:13:24;;;;;;;;;;;7.90;99.90;;;;;;5103187;28;19912;-39
2022/12/25 05:15:50;;;;;;;;;;;7.90;99.90;;;;;;5093799;28;19931;-40
2022/12/25 05:18:16;;;;;;;;;;;8.00;99.90;;;;;;5093065;28;19918;-40
2022/12/25 05:20:41;;;;;;;;;;;8.00;99.90;;;;;;5093598;28;20002;-39
2022/12/25 05:23:10;;;;;;;;;;;8.10;99.90;;;;;;5078141;28;20271;-39
2022/12/25 05:25:39;;;;;;;;;;;8.10;99.90;;;;;;5112806;28;20381;-39
2022/12/25 05:28:04;;;;;;;;;;;8.20;99.90;;;;;;5103440;28;19940;-41
2022/12/25 05:30:30;;;;;;;;;;;8.20;99.90;;;;;;5093539;28;20290;-39
2022/12/25 05:32:55;;;;;;;;;;;8.30;99.90;;;;;;5092756;28;20298;-39
2022/12/25 05:35:21;;;;;;;;;;;8.30;99.90;;;;;;5093418;28;20009;-39
2022/12/25 05:37:46;;;;;;;;;;;8.40;99.90;;;;;;5108912;28;19912;-38
2022/12/25 05:40:12;;;;;;;;;;;8.40;99.90;;;;;;5113108;28;20359;-38
2022/12/25 05:42:37;;;;;;;;;;;8.50;99.90;;;;;;5113257;28;19937;-40
2022/12/25 05:45:03;;;;;;;;;;;8.50;99.90;;;;;;5113577;28;20003;-38
2022/12/25 05:47:28;;;;;;;;;;;8.50;99.90;;;;;;5112510;28;20256;-40
2022/12/25 05:49:54;;;;;;;;;;;8.60;99.90;;;;;;5113195;28;19912;-38
2022/12/25 05:52:19;;;;;;;;;;;8.50;99.90;;;;;;5105284;28;20325;-39
2022/12/25 05:54:45;;;;;;;;;;;8.60;99.90;;;;;;5092979;28;19987;-38
2022/12/25 05:57:10;;;;;;;;;;;8.60;99.90;;;;;;5097722;28;20022;-39
2022/12/25 05:59:36;;;;;;;;;;;8.60;99.90;;;;;;5112423;28;19920;-38
2022/12/25 06:02:01;;;;;;;;;;;8.60;99.90;;;;;;5112979;28;20415;-39
2022/12/25 06:04:27;;;;;;;;;;;8.60;99.90;;;;;;5113662;28;19914;-38
2022/12/25 06:06:52;;;;;;;;;;;8.60;99.90;;;;;;5112260;28;19920;-40
2022/12/25 06:09:18;;;;;;;;;;;8.60;99.90;;;;;;5093649;28;19912;-39
2022/12/25 06:11:44;;;;;;;;;;;8.60;99.90;;;;;;5103932;28;19941;-40
2022/12/25 06:14:10;;;;;;;;;;;8.60;99.90;;;;;;5108478;28;19912;-40
2022/12/25 06:16:36;;;;;;;;;;;8.60;99.90;;;;;;5110804;28;20289;-40
2022/12/25 06:19:01;;;;;;;;;;;8.60;99.90;;;;;;5108490;28;19912;-40
2022/12/25 06:21:27;;;;;;;;;;;8.60;99.90;;;;;;5108057;28;19912;-39
2022/12/25 06:23:52;;;;;;;;;;;8.60;99.90;;;;;;5109021;28;20324;-39
2022/12/25 06:26:18;;;;;;;;;;;8.60;99.90;;;;;;5110535;28;19926;-39
2022/12/25 06:28:44;;;;;;;;;;;8.60;99.90;;;;;;5109120;28;20378;-40
2022/12/25 06:31:11;;;;;;;;;;;8.60;99.90;;;;;;5103313;28;20002;-39
2022/12/25 06:33:37;;;;;;;;;;;8.60;99.90;;;;;;5088467;28;20398;-39
2022/12/25 06:36:03;;;;;;;;;;;8.60;99.90;;;;;;5079589;28;19964;-41
2022/12/25 06:38:29;;;;;;;;;;;8.60;99.90;;;;;;5080993;28;20002;-42
2022/12/25 06:40:54;;;;;;;;;;;8.60;99.90;;;;;;5080956;28;20003;-40
2022/12/25 06:43:19;;;;;;;;;;;8.60;99.90;;;;;;5088138;28;19908;-39
2022/12/25 06:45:46;;;;;;;;;;;8.60;99.90;;;;;;5090757;28;19912;-40
2022/12/25 06:48:12;;;;;;;;;;;8.60;99.90;;;;;;5089837;28;19915;-40
2022/12/25 06:50:41;;;;;;;;;;;8.60;99.90;;;;;;5092364;28;20010;-40
2022/12/25 06:53:06;;;;;;;;;;;8.60;99.90;;;;;;5091669;28;20011;-40
2022/12/25 06:55:32;;;;;;;;;;;8.70;99.90;;;;;;5092232;28;19995;-43
2022/12/25 06:57:57;;;;;;;;;;;8.70;99.90;;;;;;5092147;28;20374;-39
2022/12/25 07:00:23;;;;;;;;;;;8.60;99.90;;;;;;5094341;28;19919;-40
2022/12/25 07:02:48;;;;;;;;;;;8.60;99.90;;;;;;5089957;28;20359;-40
2022/12/25 07:05:14;;;;;;;;;;;8.60;99.90;;;;;;5095010;28;20006;-40
2022/12/25 07:07:39;;;;;;;;;;;8.60;99.90;;;;;;5093329;28;19927;-41
2022/12/25 07:10:05;;;;;;;;;;;8.60;99.90;;;;;;5094011;28;19912;-39
2022/12/25 07:12:30;;;;;;;;;;;8.60;99.90;;;;;;5093918;28;19971;-41
2022/12/25 07:14:56;;;;;;;;;;;8.60;99.90;;;;;;5091670;28;20065;-40
2022/12/25 07:17:22;;;;;;;;;;;8.50;99.90;;;;;;5090718;28;19912;-39
2022/12/25 07:19:48;;;;;;;;;;;8.60;99.90;;;;;;5087367;28;19912;-40
2022/12/25 07:22:14;;;;;;;;;;;8.50;99.90;;;;;;5086084;28;19916;-40
2022/12/25 07:24:40;;;;;;;;;;;8.60;99.90;;;;;;5086509;28;19986;-40
2022/12/25 07:27:05;;;;;;;;;;;8.60;99.90;;;;;;5086462;28;20448;-38
2022/12/25 07:29:31;;;;;;;;;;;8.60;99.90;;;;;;5080725;28;20049;-40
2022/12/25 07:31:56;;;;;;;;;;;8.60;99.90;;;;;;5098005;27;20313;-39
2022/12/25 07:34:22;;;;;;;;;;;8.50;99.90;;;;;;5114281;27;19926;-39
2022/12/25 07:36:48;;;;;;;;;;;8.50;99.90;;;;;;5111776;28;19918;-40
2022/12/25 07:39:15;;;;;;;;;;;8.50;99.90;;;;;;5113238;28;19908;-41
2022/12/25 07:41:40;;;;;;;;;;;8.50;99.90;;;;;;5113592;28;19907;-40
2022/12/25 07:44:06;;;;;;;;;;;8.50;99.90;;;;;;5111633;28;19935;-40
2022/12/25 07:46:31;;;;;;;;;;;8.50;99.90;;;;;;5107846;28;19920;-41
2022/12/25 07:48:57;;;;;;;;;;;8.50;99.90;;;;;;5112760;28;19964;-40
2022/12/25 07:51:22;;;;;;;;;;;8.60;99.90;;;;;;5111943;28;19920;-41
2022/12/25 07:53:48;;;;;;;;;;;8.60;99.90;;;;;;5110857;27;20150;-40
2022/12/25 07:56:15;;;;;;;;;;;8.60;99.90;;;;;;5114157;28;19911;-42
2022/12/25 07:58:41;;;;;;;;;;;8.60;99.90;;;;;;5118645;27;20386;-40
2022/12/25 08:01:09;;;;;;;;;;;8.60;99.90;;;;;;5120047;27;19959;-40
2022/12/25 08:03:34;;;;;;;;;;;8.60;99.90;;;;;;5118237;27;19919;-40
2022/12/25 08:06:00;;;;;;;;;;;8.60;99.90;;;;;;5123723;27;19961;-39
2022/12/25 08:08:26;;;;;;;;;;;8.60;99.90;;;;;;5124197;27;19908;-41
2022/12/25 08:10:51;;;;;;;;;;;8.60;99.90;;;;;;5125891;27;20320;-39
2022/12/25 08:13:17;;;;;;;;;;;8.60;99.90;;;;;;5120855;27;19912;-41
2022/12/25 08:15:42;;;;;;;;;;;8.60;99.90;;;;;;5116641;27;20013;-41
2022/12/25 08:18:08;;;;;;;;;;;8.70;99.90;;;;;;5135745;27;19907;-42
2022/12/25 08:20:33;;;;;;;;;;;8.60;99.90;;;;;;5135005;27;20263;-40
2022/12/25 08:22:59;;;;;;;;;;;8.60;99.90;;;;;;5135777;27;19907;-40
2022/12/25 08:25:24;;;;;;;;;;;8.60;99.90;;;;;;5120827;27;19953;-40
2022/12/25 08:27:50;;;;;;;;;;;8.70;99.90;;;;;;5128096;27;19919;-39
2022/12/25 08:30:15;;;;;;;;;;;8.70;99.90;;;;;;5124977;27;20282;-41
2022/12/25 08:32:41;;;;;;;;;;;8.70;99.90;;;;;;5102379;27;19935;-40
2022/12/25 08:35:06;;;;;;;;;;;8.70;99.90;;;;;;5134929;27;19961;-40
2022/12/25 08:37:32;;;;;;;;;;;8.70;99.90;;;;;;5127166;27;19908;-40
2022/12/25 08:39:57;;;;;;;;;;;8.70;99.90;;;;;;5115158;28;19914;-39
2022/12/25 08:42:23;;;;;;;;;;;8.70;99.90;;;;;;5114288;28;20350;-41
2022/12/25 08:44:48;;;;;;;;;;;8.70;99.90;;;;;;5114926;28;19912;-39
2022/12/25 08:47:14;;;;;;;;;;;8.70;99.90;;;;;;5133450;27;20014;-40
2022/12/25 08:49:39;;;;;;;;;;;8.70;99.90;;;;;;5113696;27;20328;-41
2022/12/25 08:52:05;;;;;;;;;;;8.70;99.90;;;;;;5113136;28;20006;-41
2022/12/25 08:54:32;;;;;;;;;;;8.70;99.90;;;;;;5112125;28;20305;-40
2022/12/25 08:56:58;;;;;;;;;;;8.70;99.90;;;;;;5108493;28;19951;-40
2022/12/25 08:59:23;;;;;;;;;;;8.70;99.90;;;;;;5112908;28;20353;-39
2022/12/25 09:01:49;;;;;;;;;;;8.70;99.90;;;;;;5112308;28;20007;-41
2022/12/25 09:04:14;;;;;;;;;;;8.70;99.90;;;;;;5109105;28;19916;-39
2022/12/25 09:06:40;;;;;;;;;;;8.80;99.90;;;;;;5112451;28;19916;-40
2022/12/25 09:09:05;;;;;;;;;;;8.80;99.90;;;;;;5112128;28;19931;-41
2022/12/25 09:11:31;;;;;;;;;;;8.80;99.90;;;;;;5110397;28;19912;-40
2022/12/25 09:13:56;;;;;;;;;;;8.80;99.90;;;;;;5105558;28;19937;-39
2022/12/25 09:16:22;;;;;;;;;;;8.80;99.90;;;;;;5111654;28;19933;-39
2022/12/25 09:18:47;;;;;;;;;;;8.80;99.90;;;;;;5110064;28;20286;-39
2022/12/25 09:21:14;;;;;;;;;;;8.80;99.90;;;;;;5119170;27;19914;-39
2022/12/25 09:23:39;;;;;;;;;;;8.80;99.90;;;;;;5133453;27;19974;-40
2022/12/25 09:26:06;;;;;;;;;;;8.80;99.90;;;;;;5121829;27;19951;-41
2022/12/25 09:28:32;;;;;;;;;;;8.80;99.90;;;;;;5113945;28;20006;-41
2022/12/25 09:30:58;;;;;;;;;;;8.80;99.90;;;;;;5112792;28;20015;-40
2022/12/25 09:33:23;;;;;;;;;;;8.90;99.90;;;;;;5113836;28;19912;-40
2022/12/25 09:35:55;;;;;;;;;;;8.90;99.90;;;;;;5113841;28;19908;-39
2022/12/25 09:38:21;;;;;;;;;;;8.90;99.90;;;;;;5126309;27;19908;-40
2022/12/25 09:40:47;;;;;;;;;;;8.90;99.90;;;;;;5134448;27;19907;-40
2022/12/25 09:43:15;;;;;;;;;;;8.90;99.90;;;;;;5134303;27;20434;-40
2022/12/25 09:45:41;;;;;;;;;;;9.00;99.90;;;;;;5133118;27;20288;-40
2022/12/25 09:48:10;;;;;;;;;;;9.00;99.90;;;;;;5134261;27;20387;-40
2022/12/25 09:50:47;;;;;;;;;;;9.00;99.90;;;;;;5134062;27;19908;-40
2022/12/25 09:53:19;;;;;;;;;;;9.00;99.90;;;;;;5133510;27;19990;-39
2022/12/25 09:56:05;;;;;;;;;;;9.00;99.90;;;;;;5133960;27;19912;-40
2022/12/25 09:58:31;;;;;;;;;;;9.10;99.90;;;;;;5119757;27;19912;-39
2022/12/25 10:01:06;;;;;;;;;;;9.10;99.90;;;;;;5113381;28;20010;-40
2022/12/25 10:03:41;;;;;;;;;;;9.10;99.90;;;;;;5113618;28;20281;-39
2022/12/25 10:06:18;;;;;;;;;;;9.10;99.90;;;;;;5103301;28;19919;-38
2022/12/25 10:08:52;;;;;;;;;;;9.10;99.90;;;;;;5128252;27;19915;-40
2022/12/25 10:11:36;;;;;;;;;;;9.10;99.90;;;;;;5128603;27;19912;-39
2022/12/25 10:14:16;;;;;;;;;;;9.20;99.90;;;;;;5112300;28;19912;-39
2022/12/25 10:17:07;;;;;;;;;;;9.10;99.90;;;;;;5112756;28;19908;-40
2022/12/25 10:19:51;;;;;;;;;;;9.20;99.90;;;;;;5112442;28;19911;-40
2022/12/25 10:22:26;;;;;;;;;;;9.20;99.90;;;;;;5113289;28;19939;-40
2022/12/25 10:24:53;;;;;;;;;;;9.20;99.90;;;;;;5112226;28;19915;-39
2022/12/25 10:27:20;;;;;;;;;;;9.20;99.90;;;;;;5112270;28;20023;-39
2022/12/25 10:29:48;;;;;;;;;;;9.20;99.90;;;;;;5111882;28;19918;-41
2022/12/25 10:32:13;;;;;;;;;;;9.30;99.90;;;;;;5112608;28;19955;-40
2022/12/25 10:34:40;;;;;;;;;;;9.30;99.90;;;;;;5112237;28;19954;-41
2022/12/25 10:37:07;;;;;;;;;;;9.30;99.90;;;;;;5112964;28;19915;-41
2022/12/25 10:39:33;;;;;;;;;;;9.30;99.90;;;;;;5112472;28;19912;-40
2022/12/25 10:41:58;;;;;;;;;;;9.30;99.90;;;;;;5112138;28;19952;-40
2022/12/25 10:44:24;;;;;;;;;;;9.30;99.90;;;;;;5101548;28;19916;-39
2022/12/25 10:46:51;;;;;;;;;;;9.40;99.90;;;;;;5109482;28;19920;-39
2022/12/25 10:49:18;;;;;;;;;;;9.40;99.90;;;;;;5132520;28;19907;-40
2022/12/25 10:51:44;;;;;;;;;;;9.40;99.90;;;;;;5123483;28;20362;-41
2022/12/25 10:54:35;;;;;;;;;;;9.50;99.90;;;;;;5112970;28;19908;-40
2022/12/25 10:57:02;;;;;;;;;;;9.40;99.90;;;;;;5107025;28;19908;-40
2022/12/25 10:59:29;;;;;;;;;;;9.50;99.90;;;;;;5111948;28;20294;-41
2022/12/25 11:02:02;;;;;;;;;;;9.60;99.90;;;;;;5111445;28;19908;-40
2022/12/25 11:04:27;;;;;;;;;;;9.60;99.90;;;;;;5111721;28;19966;-40
2022/12/25 11:07:02;;;;;;;;;;;9.60;99.90;;;;;;5108394;28;19959;-39
2022/12/25 11:09:27;;;;;;;;;;;9.60;99.90;;;;;;5105223;28;19974;-39
2022/12/25 11:11:53;;;;;;;;;;;9.70;99.90;;;;;;5112291;28;20372;-40
2022/12/25 11:14:19;;;;;;;;;;;9.70;99.90;;;;;;5108113;28;19976;-38
2022/12/25 11:16:45;;;;;;;;;;;9.80;99.90;;;;;;5109353;28;19947;-40
2022/12/25 11:19:24;;;;;;;;;;;9.80;99.90;;;;;;5111812;28;19947;-40
2022/12/25 11:21:51;;;;;;;;;;;9.80;99.90;;;;;;5109945;28;19908;-41
2022/12/25 11:24:18;;;;;;;;;;;9.80;99.90;;;;;;5111296;28;19908;-40
2022/12/25 11:26:48;;;;;;;;;;;9.80;99.90;;;;;;5111790;28;19932;-40
2022/12/25 11:29:28;;;;;;;;;;;9.80;99.90;;;;;;5112007;28;19908;-41
2022/12/25 11:31:56;;;;;;;;;;;9.90;99.90;;;;;;5089739;28;20365;-40
2022/12/25 11:34:29;;;;;;;;;;;9.90;99.90;;;;;;5104484;28;19965;-40
2022/12/25 11:36:56;;;;;;;;;;;10.00;99.90;;;;;;5101614;28;20366;-43
2022/12/25 11:39:36;;;;;;;;;;;10.00;99.90;;;;;;5111746;28;20450;-40
2022/12/25 11:42:08;;;;;;;;;;;10.00;99.90;;;;;;5113639;28;19915;-39
2022/12/25 11:44:42;;;;;;;;;;;10.10;99.90;;;;;;5111867;28;20320;-39
2022/12/25 11:47:28;;;;;;;;;;;10.10;99.90;;;;;;5095634;28;19993;-41
2022/12/25 11:49:57;;;;;;;;;;;10.10;99.90;;;;;;5096143;28;19960;-40
2022/12/25 11:52:24;;;;;;;;;;;10.20;99.90;;;;;;5115275;28;19911;-40
2022/12/25 11:55:01;;;;;;;;;;;10.20;99.90;;;;;;5115905;28;19907;-39
2022/12/25 11:57:28;;;;;;;;;;;10.20;99.90;;;;;;5115933;28;19916;-39
2022/12/25 12:00:20;;;;;;;;;;;10.30;99.90;;;;;;5115299;28;19994;-40
2022/12/25 12:03:01;;;;;;;;;;;10.20;99.90;;;;;;5111501;28;19919;-40
2022/12/25 12:05:41;;;;;;;;;;;10.20;99.90;;;;;;5099908;28;19994;-41
2022/12/25 12:08:08;;;;;;;;;;;10.20;99.90;;;;;;5095333;28;19990;-40
2022/12/25 12:10:41;;;;;;;;;;;10.20;99.90;;;;;;5095094;28;19908;-40
2022/12/25 12:13:15;;;;;;;;;;;10.20;99.90;;;;;;5105904;27;19912;-40
2022/12/25 12:15:45;;;;;;;;;;;10.20;99.90;;;;;;5135966;27;19958;-39
2022/12/25 12:18:20;;;;;;;;;;;10.10;99.90;;;;;;5126997;27;20009;-40
2022/12/25 12:20:55;;;;;;;;;;;10.10;99.90;;;;;;5114491;28;19912;-40
2022/12/25 12:23:21;;;;;;;;;;;10.10;99.90;;;;;;5115433;28;20331;-41
2022/12/25 12:25:48;;;;;;;;;;;10.10;99.90;;;;;;5115330;28;20192;-41
2022/12/25 12:28:35;;;;;;;;;;;10.10;99.90;;;;;;5114343;28;20263;-40
2022/12/25 12:31:03;;;;;;;;;;;10.10;99.90;;;;;;5129370;27;19914;-40
2022/12/25 12:33:31;;;;;;;;;;;10.10;99.90;;;;;;5134903;27;19921;-41
2022/12/25 12:35:56;;;;;;;;;;;10.10;99.90;;;;;;5133729;27;20364;-40
2022/12/25 12:38:23;;;;;;;;;;;10.10;99.90;;;;;;5102957;28;19912;-41
2022/12/25 12:41:17;;;;;;;;;;;10.10;99.90;;;;;;5094799;28;20018;-40
2022/12/25 12:43:53;;;;;;;;;;;10.10;99.90;;;;;;5080939;28;19912;-40
2022/12/25 12:46:20;;;;;;;;;;;10.10;99.90;;;;;;5094371;28;19947;-40
2022/12/25 12:48:47;;;;;;;;;;;10.10;99.90;;;;;;5094028;28;19978;-40
2022/12/25 12:51:25;;;;;;;;;;;10.10;99.90;;;;;;5114242;28;19961;-40
2022/12/25 12:54:02;;;;;;;;;;;10.10;99.90;;;;;;5114860;28;19961;-40
2022/12/25 12:56:28;;;;;;;;;;;10.00;99.90;;;;;;5114006;28;19950;-40
2022/12/25 12:58:53;;;;;;;;;;;10.00;99.90;;;;;;5113485;28;19958;-40
2022/12/25 13:01:36;;;;;;;;;;;10.00;99.90;;;;;;5114050;28;20289;-41
2022/12/25 13:04:20;;;;;;;;;;;10.00;99.90;;;;;;5110661;28;19908;-40
2022/12/25 13:06:59;;;;;;;;;;;10.00;99.90;;;;;;5109300;27;19916;-39
2022/12/25 13:09:59;;;;;;;;;;;10.00;99.90;;;;;;5134266;27;19908;-40
2022/12/25 13:12:25;;;;;;;;;;;10.00;99.90;;;;;;5031434;28;19963;-39
2022/12/25 13:14:50;;;;;;;;;;;10.00;99.90;;;;;;5112812;27;19943;-39
2022/12/25 13:17:19;;;;;;;;;;;10.00;99.90;;;;;;5134126;27;19959;-39
2022/12/25 13:19:45;;;;;;;;;;;10.00;99.90;;;;;;5134686;27;19980;-40
2022/12/25 13:22:42;;;;;;;;;;;9.90;99.90;;;;;;5134404;27;20370;-39
2022/12/25 13:25:16;;;;;;;;;;;9.90;99.90;;;;;;5074074;27;20366;-42
2022/12/25 13:27:41;;;;;;;;;;;9.90;99.90;;;;;;5097442;28;20010;-39
2022/12/25 13:30:13;;;;;;;;;;;9.90;99.90;;;;;;5093103;28;20415;-40
2022/12/25 13:32:40;;;;;;;;;;;9.80;99.90;;;;;;5092672;28;19920;-39
2022/12/25 13:35:11;;;;;;;;;;;9.80;99.90;;;;;;5099923;28;19966;-38
2022/12/25 13:37:37;;;;;;;;;;;9.80;99.90;;;;;;5105962;28;20011;-39
2022/12/25 13:40:03;;;;;;;;;;;9.80;99.90;;;;;;5101276;28;20002;-40
2022/12/25 13:42:35;;;;;;;;;;;9.80;99.90;;;;;;5109715;28;20282;-40
2022/12/25 13:45:05;;;;;;;;;;;9.70;99.90;;;;;;5108499;28;19992;-41
2022/12/25 13:47:35;;;;;;;;;;;9.70;99.90;;;;;;5112953;28;20401;-40
2022/12/25 13:50:12;;;;;;;;;;;9.60;99.90;;;;;;5113257;28;19908;-39
2022/12/25 13:52:38;;;;;;;;;;;9.60;99.90;;;;;;5110083;28;19918;-42
2022/12/25 13:55:04;;;;;;;;;;;9.60;99.90;;;;;;5113179;28;19908;-40
2022/12/25 13:57:33;;;;;;;;;;;9.60;99.90;;;;;;5112982;28;20377;-40
2022/12/25 13:59:59;;;;;;;;;;;9.60;99.90;;;;;;5108265;28;20011;-40
2022/12/25 14:02:29;;;;;;;;;;;9.60;99.90;;;;;;5112248;27;19955;-41
2022/12/25 14:04:54;;;;;;;;;;;9.60;99.90;;;;;;5108750;28;19922;-40
2022/12/25 14:07:22;;;;;;;;;;;9.60;99.90;;;;;;5122622;27;19916;-39
2022/12/25 14:09:52;;;;;;;;;;;9.60;99.90;;;;;;5108209;28;20374;-40
2022/12/25 14:12:18;;;;;;;;;;;9.60;99.90;;;;;;5097554;28;19920;-41
2022/12/25 14:14:44;;;;;;;;;;;9.60;99.90;;;;;;5108964;28;19964;-41
2022/12/25 14:17:10;;;;;;;;;;;9.50;99.90;;;;;;5112780;28;19908;-39
2022/12/25 14:19:35;;;;;;;;;;;9.50;99.90;;;;;;5112356;28;19914;-40
2022/12/25 14:22:09;;;;;;;;;;;9.50;99.90;;;;;;5112574;28;19954;-40
2022/12/25 14:24:35;;;;;;;;;;;9.50;99.90;;;;;;5110735;28;19918;-40
2022/12/25 14:27:02;;;;;;;;;;;9.40;99.90;;;;;;5110507;28;19973;-40
2022/12/25 14:29:31;;;;;;;;;;;9.40;99.90;;;;;;5113055;28;19911;-40
2022/12/25 14:31:57;;;;;;;;;;;9.40;99.90;;;;;;5112277;28;19920;-40
2022/12/25 14:34:23;;;;;;;;;;;9.40;99.90;;;;;;5111633;28;19907;-41
2022/12/25 14:36:49;;;;;;;;;;;9.40;99.90;;;;;;5113110;28;19908;-42
2022/12/25 14:39:25;;;;;;;;;;;9.40;99.90;;;;;;5112210;28;19912;-42
2022/12/25 14:41:52;;;;;;;;;;;9.40;99.90;;;;;;5106211;28;20056;-40
2022/12/25 14:44:32;;;;;;;;;;;9.30;99.90;;;;;;5108409;28;19915;-41
2022/12/25 14:47:09;;;;;;;;;;;9.30;99.90;;;;;;5109131;28;19922;-40
2022/12/25 14:49:35;;;;;;;;;;;9.30;99.90;;;;;;5109329;28;19912;-40
2022/12/25 14:52:06;;;;;;;;;;;9.30;99.90;;;;;;5108302;28;19919;-41
2022/12/25 14:54:32;;;;;;;;;;;9.30;99.90;;;;;;5109396;28;20394;-40
2022/12/25 14:56:57;;;;;;;;;;;9.30;99.90;;;;;;5110566;28;19990;-40
2022/12/25 14:59:24;;;;;;;;;;;9.30;99.90;;;;;;5113479;28;20051;-40
2022/12/25 15:01:50;;;;;;;;;;;9.30;99.90;;;;;;5109010;28;20296;-40
2022/12/25 15:04:17;;;;;;;;;;;9.30;99.90;;;;;;5112119;28;20375;-40
2022/12/25 15:06:56;;;;;;;;;;;9.30;99.90;;;;;;5111992;28;19920;-39
2022/12/25 15:09:22;;;;;;;;;;;9.30;99.90;;;;;;5093158;28;20328;-40
2022/12/25 15:11:48;;;;;;;;;;;9.30;99.90;;;;;;5114837;28;19957;-40
2022/12/25 15:14:14;;;;;;;;;;;9.30;99.90;;;;;;5116721;28;19907;-41
2022/12/25 15:16:41;;;;;;;;;;;9.30;99.90;;;;;;5120221;27;19919;-41
2022/12/25 15:19:07;;;;;;;;;;;9.30;99.90;;;;;;5105167;28;20415;-40
2022/12/25 15:21:34;;;;;;;;;;;9.30;99.90;;;;;;5099604;28;20425;-41
2022/12/25 15:24:00;;;;;;;;;;;9.30;99.90;;;;;;5115816;28;19933;-41
2022/12/25 15:26:27;;;;;;;;;;;9.30;99.90;;;;;;5116371;28;19915;-41
2022/12/25 15:28:52;;;;;;;;;;;9.30;99.90;;;;;;5116415;28;19908;-41
2022/12/25 15:31:18;;;;;;;;;;;9.20;99.90;;;;;;5109042;28;19920;-41
2022/12/25 15:33:43;;;;;;;;;;;9.20;99.90;;;;;;5095927;28;19912;-40
2022/12/25 15:36:09;;;;;;;;;;;9.20;99.90;;;;;;5100868;28;19991;-41
2022/12/25 15:38:36;;;;;;;;;;;9.20;99.90;;;;;;5100621;28;19912;-40
2022/12/25 15:41:02;;;;;;;;;;;9.20;99.90;;;;;;5096546;28;20057;-41
2022/12/25 15:43:28;;;;;;;;;;;9.10;99.90;;;;;;5105456;28;19916;-41
2022/12/25 15:45:53;;;;;;;;;;;9.10;99.90;;;;;;5095689;28;19908;-39
2022/12/25 15:48:18;;;;;;;;;;;9.10;99.90;;;;;;5095600;28;19939;-40
2022/12/25 15:50:45;;;;;;;;;;;9.10;99.90;;;;;;5094877;28;19995;-40
2022/12/25 15:53:11;;;;;;;;;;;9.10;99.90;;;;;;5127078;27;19912;-41
2022/12/25 15:55:37;;;;;;;;;;;9.10;99.90;;;;;;5136507;27;19960;-40
2022/12/25 15:58:02;;;;;;;;;;;9.10;99.90;;;;;;5135844;27;20374;-40
2022/12/25 16:00:28;;;;;;;;;;;9.10;99.90;;;;;;5136280;27;19934;-40
2022/12/25 16:02:54;;;;;;;;;;;9.10;99.90;;;;;;5136380;27;20319;-41
2022/12/25 16:05:20;;;;;;;;;;;9.10;99.90;;;;;;5135425;27;19953;-40
2022/12/25 16:07:46;;;;;;;;;;;9.10;99.90;;;;;;5135827;27;19922;-40
2022/12/25 16:10:16;;;;;;;;;;;9.00;99.90;;;;;;5136105;27;19908;-41
2022/12/25 16:12:42;;;;;;;;;;;9.00;99.90;;;;;;5135261;27;19952;-41
2022/12/25 16:15:09;;;;;;;;;;;9.00;99.90;;;;;;5136097;27;20282;-41
2022/12/25 16:17:34;;;;;;;;;;;9.10;99.90;;;;;;5135710;27;20329;-40
2022/12/25 16:20:00;;;;;;;;;;;9.00;99.90;;;;;;5135276;27;19998;-40
2022/12/25 16:22:25;;;;;;;;;;;9.00;99.90;;;;;;5114473;27;19934;-41